Time,TemperatureF,DewpointF,PressureIn,WindDirection,WindDirectionDegrees,WindSpeedMPH,WindSpeedGustMPH,Humidity,HourlyPrecipIn,Conditions,Clouds,dailyrainin,SoftwareType,DateUTC
2013-05-31 00:14:00,72.9,68.1,29.94,SW,225,0.0,-999.0,85,-99.99,,,0.00,Acu-Link.com,2013-05-31 04:14:00,
2013-05-31 00:29:00,73.0,68.6,29.94,SE,135,2.2,-999.0,86,-99.99,,,0.00,Acu-Link.com,2013-05-31 04:29:00,
2013-05-31 00:44:00,73.2,68.8,29.95,SSE,157,0.0,-999.0,86,-99.99,,,0.00,Acu-Link.com,2013-05-31 04:44:00,
2013-05-31 01:00:00,73.2,68.8,29.95,SSW,202,0.0,-999.0,86,-99.99,,,0.00,Acu-Link.com,2013-05-31 05:00:00,
2013-05-31 01:15:00,73.2,68.8,29.95,SSW,202,0.0,-999.0,86,-99.99,,,0.00,Acu-Link.com,2013-05-31 05:15:00,
2013-05-31 01:30:00,73.0,68.6,29.94,SSW,202,0.0,-999.0,86,-99.99,,,0.00,Acu-Link.com,2013-05-31 05:30:00,
2013-05-31 01:45:00,73.0,68.6,29.93,SE,135,0.0,-999.0,86,-99.99,,,0.00,Acu-Link.com,2013-05-31 05:45:00,
2013-05-31 02:01:00,73.0,68.6,29.93,SSW,202,1.1,-999.0,86,-99.99,,,0.00,Acu-Link.com,2013-05-31 06:01:00,
2013-05-31 02:16:00,72.9,68.5,29.93,South,180,0.0,-999.0,86,-99.99,,,0.00,Acu-Link.com,2013-05-31 06:16:00,
2013-05-31 02:31:00,72.9,68.5,29.92,SSW,202,0.0,-999.0,86,-99.99,,,0.00,Acu-Link.com,2013-05-31 06:31:00,
2013-05-31 02:46:00,73.0,68.9,29.92,South,180,0.0,-999.0,87,-99.99,,,0.00,Acu-Link.com,2013-05-31 06:46:00,
2013-05-31 03:01:00,73.0,68.9,29.92,South,180,0.0,-999.0,87,-99.99,,,0.00,Acu-Link.com,2013-05-31 07:01:00,
2013-05-31 03:17:00,73.0,68.6,29.92,SSW,202,0.0,-999.0,86,-99.99,,,0.00,Acu-Link.com,2013-05-31 07:17:00,
2013-05-31 03:32:00,73.0,68.6,29.92,East,90,0.0,-999.0,86,-99.99,,,0.00,Acu-Link.com,2013-05-31 07:32:00,
2013-05-31 03:47:00,73.0,68.6,29.92,SSW,202,0.0,-999.0,86,-99.99,,,0.00,Acu-Link.com,2013-05-31 07:47:00,
2013-05-31 04:03:00,72.5,68.1,29.92,South,180,0.0,-999.0,86,-99.99,,,0.00,Acu-Link.com,2013-05-31 08:03:00,
2013-05-31 04:20:00,72.5,68.4,29.92,SSW,202,0.0,-999.0,87,-99.99,,,0.00,Acu-Link.com,2013-05-31 08:20:00,
2013-05-31 04:35:00,72.5,68.4,29.92,SSW,202,0.0,-999.0,87,-99.99,,,0.00,Acu-Link.com,2013-05-31 08:35:00,
2013-05-31 04:50:00,72.0,67.9,29.92,NW,315,0.0,-999.0,87,-99.99,,,0.00,Acu-Link.com,2013-05-31 08:50:00,
2013-05-31 05:05:00,71.8,68.0,29.92,ENE,67,0.0,-999.0,88,-99.99,,,0.00,Acu-Link.com,2013-05-31 09:05:00,
2013-05-31 05:20:00,71.6,68.2,29.92,NNE,22,1.1,-999.0,89,-99.99,,,0.00,Acu-Link.com,2013-05-31 09:20:00,
2013-05-31 05:35:00,71.2,67.8,29.92,ENE,67,2.2,-999.0,89,-99.99,,,0.00,Acu-Link.com,2013-05-31 09:35:00,
2013-05-31 05:51:00,70.5,67.1,29.92,SE,135,0.0,-999.0,89,-99.99,,,0.00,Acu-Link.com,2013-05-31 09:51:00,
2013-05-31 06:06:00,70.3,66.9,29.93,ESE,112,0.0,-999.0,89,-99.99,,,0.00,Acu-Link.com,2013-05-31 10:06:00,
2013-05-31 06:21:00,70.5,67.1,29.93,ESE,112,1.7,-999.0,89,-99.99,,,0.00,Acu-Link.com,2013-05-31 10:21:00,
2013-05-31 06:37:00,71.1,68.0,29.93,SE,135,1.7,-999.0,90,-99.99,,,0.00,Acu-Link.com,2013-05-31 10:37:00,
2013-05-31 06:52:00,72.5,69.4,29.93,ESE,112,1.7,-999.0,90,-99.99,,,0.00,Acu-Link.com,2013-05-31 10:52:00,
2013-05-31 07:08:00,74.7,70.9,29.94,ESE,112,0.0,-999.0,88,-99.99,,,0.00,Acu-Link.com,2013-05-31 11:08:00,
2013-05-31 07:23:00,77.4,70.4,29.94,ESE,112,2.7,-999.0,79,-99.99,,,0.00,Acu-Link.com,2013-05-31 11:23:00,
2013-05-31 07:38:00,79.2,70.2,29.94,ESE,112,3.2,-999.0,74,-99.99,,,0.00,Acu-Link.com,2013-05-31 11:38:00,
2013-05-31 07:54:00,80.4,70.1,29.94,ESE,112,4.7,-999.0,71,-99.99,,,0.00,Acu-Link.com,2013-05-31 11:54:00,
2013-05-31 08:09:00,80.6,69.9,29.95,ESE,112,4.7,-999.0,70,-99.99,,,0.00,Acu-Link.com,2013-05-31 12:09:00,
2013-05-31 08:24:00,81.0,69.4,29.96,SE,135,4.2,-999.0,68,-99.99,,,0.00,Acu-Link.com,2013-05-31 12:24:00,
2013-05-31 08:39:00,79.9,68.8,29.96,ESE,112,5.8,-999.0,69,-99.99,,,0.00,Acu-Link.com,2013-05-31 12:39:00,
2013-05-31 08:54:00,81.1,69.1,29.95,ESE,112,4.7,-999.0,67,-99.99,,,0.00,Acu-Link.com,2013-05-31 12:54:00,
2013-05-31 09:09:00,80.1,68.6,29.96,ESE,112,8.3,-999.0,68,-99.99,,,0.00,Acu-Link.com,2013-05-31 13:09:00,
2013-05-31 09:24:00,78.8,68.6,29.95,SE,135,7.3,-999.0,71,-99.99,,,0.00,Acu-Link.com,2013-05-31 13:24:00,
2013-05-31 09:39:00,78.8,68.2,29.96,ESE,112,6.3,-999.0,70,-99.99,,,0.00,Acu-Link.com,2013-05-31 13:39:00,
2013-05-31 09:54:00,79.2,68.1,29.96,ESE,112,4.2,-999.0,69,-99.99,,,0.00,Acu-Link.com,2013-05-31 13:54:00,
2013-05-31 10:09:00,79.7,68.2,29.96,East,90,5.8,-999.0,68,-99.99,,,0.00,Acu-Link.com,2013-05-31 14:09:00,
2013-05-31 10:25:00,80.8,67.9,29.96,SE,135,6.8,-999.0,65,-99.99,,,0.00,Acu-Link.com,2013-05-31 14:25:00,
2013-05-31 10:40:00,81.0,68.1,29.97,ESE,112,7.3,-999.0,65,-99.99,,,0.00,Acu-Link.com,2013-05-31 14:40:00,
2013-05-31 10:55:00,81.0,67.7,29.97,ESE,112,8.9,-999.0,64,-99.99,,,0.00,Acu-Link.com,2013-05-31 14:55:00,
2013-05-31 11:10:00,81.0,66.7,29.97,East,90,3.7,-999.0,62,-99.99,,,0.00,Acu-Link.com,2013-05-31 15:10:00,
2013-05-31 11:25:00,81.0,66.7,29.97,ESE,112,9.9,-999.0,62,-99.99,,,0.00,Acu-Link.com,2013-05-31 15:25:00,
2013-05-31 11:41:00,81.3,67.5,29.97,SE,135,3.2,-999.0,63,-99.99,,,0.00,Acu-Link.com,2013-05-31 15:41:00,
2013-05-31 11:56:00,82.0,67.7,29.97,NNW,337,1.7,-999.0,62,-99.99,,,0.00,Acu-Link.com,2013-05-31 15:56:00,
2013-05-31 12:11:00,82.4,65.6,29.96,SE,135,7.3,-999.0,57,-99.99,,,0.00,Acu-Link.com,2013-05-31 16:11:00,
2013-05-31 12:26:00,82.9,66.6,29.96,ESE,112,9.4,-999.0,58,-99.99,,,0.00,Acu-Link.com,2013-05-31 16:26:00,
2013-05-31 12:41:00,82.8,65.5,29.96,ESE,112,6.8,-999.0,56,-99.99,,,0.00,Acu-Link.com,2013-05-31 16:41:00,
2013-05-31 12:57:00,84.0,66.1,29.95,ESE,112,3.7,-999.0,55,-99.99,,,0.00,Acu-Link.com,2013-05-31 16:57:00,
2013-05-31 13:12:00,82.4,66.1,29.95,ESE,112,6.3,-999.0,58,-99.99,,,0.00,Acu-Link.com,2013-05-31 17:12:00,
2013-05-31 13:27:00,82.0,65.7,29.95,ESE,112,6.8,-999.0,58,-99.99,,,0.00,Acu-Link.com,2013-05-31 17:27:00,
2013-05-31 13:42:00,82.6,66.3,29.94,ESE,112,9.4,-999.0,58,-99.99,,,0.00,Acu-Link.com,2013-05-31 17:42:00,
2013-05-31 13:57:00,81.5,66.7,29.94,East,90,6.8,-999.0,61,-99.99,,,0.00,Acu-Link.com,2013-05-31 17:57:00,
2013-05-31 14:13:00,82.0,66.2,29.94,ENE,67,6.3,-999.0,59,-99.99,,,0.00,Acu-Link.com,2013-05-31 18:13:00,
2013-05-31 14:28:00,82.9,65.6,29.93,ESE,112,10.4,-999.0,56,-99.99,,,0.00,Acu-Link.com,2013-05-31 18:28:00,
2013-05-31 14:43:00,82.2,65.4,29.93,SSE,157,4.2,-999.0,57,-99.99,,,0.00,Acu-Link.com,2013-05-31 18:43:00,
2013-05-31 14:58:00,81.3,64.6,29.93,ESE,112,7.8,-999.0,57,-99.99,,,0.00,Acu-Link.com,2013-05-31 18:58:00,
2013-05-31 15:14:00,81.9,65.6,29.92,SSE,157,10.9,-999.0,58,-99.99,,,0.00,Acu-Link.com,2013-05-31 19:14:00,
2013-05-31 15:29:00,81.9,65.6,29.92,SE,135,9.9,-999.0,58,-99.99,,,0.00,Acu-Link.com,2013-05-31 19:29:00,
2013-05-31 15:44:00,81.3,67.5,29.92,SE,135,6.8,-999.0,63,-99.99,,,0.00,Acu-Link.com,2013-05-31 19:44:00,
2013-05-31 15:59:00,80.6,67.7,29.91,SSE,157,8.9,-999.0,65,-99.99,,,0.00,Acu-Link.com,2013-05-31 19:59:00,
2013-05-31 16:14:00,81.1,67.7,29.91,ESE,112,3.7,-999.0,64,-99.99,,,0.00,Acu-Link.com,2013-05-31 20:14:00,
2013-05-31 16:30:00,82.0,67.7,29.91,SE,135,5.8,-999.0,62,-99.99,,,0.00,Acu-Link.com,2013-05-31 20:30:00,
2013-05-31 16:45:00,80.4,67.1,29.90,ENE,67,4.7,-999.0,64,-99.99,,,0.00,Acu-Link.com,2013-05-31 20:45:00,
2013-05-31 17:00:00,82.9,68.0,29.90,ESE,112,8.9,-999.0,61,-99.99,,,0.00,Acu-Link.com,2013-05-31 21:00:00,
2013-05-31 17:15:00,82.8,68.4,29.89,ESE,112,3.2,-999.0,62,-99.99,,,0.00,Acu-Link.com,2013-05-31 21:15:00,
2013-05-31 17:30:00,81.7,68.3,29.89,ESE,112,9.4,-999.0,64,-99.99,,,0.00,Acu-Link.com,2013-05-31 21:30:00,
2013-05-31 17:46:00,81.0,68.5,29.89,South,180,6.3,-999.0,66,-99.99,,,0.00,Acu-Link.com,2013-05-31 21:46:00,
2013-05-31 18:01:00,80.4,68.4,29.88,ESE,112,7.3,-999.0,67,-99.99,,,0.00,Acu-Link.com,2013-05-31 22:01:00,
2013-05-31 18:16:00,81.1,69.1,29.89,East,90,6.8,-999.0,67,-99.99,,,0.00,Acu-Link.com,2013-05-31 22:16:00,
2013-05-31 18:31:00,80.4,68.0,29.89,SSE,157,3.2,-999.0,66,-99.99,,,0.00,Acu-Link.com,2013-05-31 22:31:00,
2013-05-31 18:47:00,79.9,67.9,29.89,South,180,4.7,-999.0,67,-99.99,,,0.00,Acu-Link.com,2013-05-31 22:47:00,
2013-05-31 19:02:00,79.2,68.1,29.89,ESE,112,3.7,-999.0,69,-99.99,,,0.00,Acu-Link.com,2013-05-31 23:02:00,
2013-05-31 19:17:00,77.9,68.1,29.89,ESE,112,7.3,-999.0,72,-99.99,,,0.00,Acu-Link.com,2013-05-31 23:17:00,
2013-05-31 19:32:00,77.4,68.0,29.90,SSW,202,2.7,-999.0,73,-99.99,,,0.00,Acu-Link.com,2013-05-31 23:32:00,
2013-05-31 19:47:00,77.0,68.1,29.90,ESE,112,4.2,-999.0,74,-99.99,,,0.00,Acu-Link.com,2013-05-31 23:47:00,
2013-05-31 20:03:00,76.6,68.5,29.90,ESE,112,3.7,-999.0,76,-99.99,,,0.00,Acu-Link.com,2013-06-01 00:03:00,
2013-05-31 20:18:00,75.9,68.2,29.89,SSW,202,2.2,-999.0,77,-99.99,,,0.00,Acu-Link.com,2013-06-01 00:18:00,
2013-05-31 20:33:00,75.4,68.0,29.89,SSE,157,4.2,-999.0,78,-99.99,,,0.00,Acu-Link.com,2013-06-01 00:33:00,
2013-05-31 20:48:00,75.0,68.0,29.89,ESE,112,0.0,-999.0,79,-99.99,,,0.00,Acu-Link.com,2013-06-01 00:48:00,
2013-05-31 21:04:00,74.5,68.3,29.89,South,180,2.2,-999.0,81,-99.99,,,0.00,Acu-Link.com,2013-06-01 01:04:00,
2013-05-31 21:19:00,74.1,67.9,29.90,South,180,0.0,-999.0,81,-99.99,,,0.00,Acu-Link.com,2013-06-01 01:19:00,
2013-05-31 21:34:00,73.6,68.1,29.90,SE,135,0.0,-999.0,83,-99.99,,,0.00,Acu-Link.com,2013-06-01 01:34:00,
2013-05-31 21:50:00,73.4,67.9,29.90,East,90,0.0,-999.0,83,-99.99,,,0.00,Acu-Link.com,2013-06-01 01:50:00,
2013-05-31 22:05:00,73.0,67.5,29.91,East,90,0.0,-999.0,83,-99.99,,,0.00,Acu-Link.com,2013-06-01 02:05:00,
2013-05-31 22:20:00,72.9,67.8,29.91,NE,45,0.0,-999.0,84,-99.99,,,0.00,Acu-Link.com,2013-06-01 02:20:00,
2013-05-31 22:35:00,72.5,67.4,29.91,North,0,0.0,-999.0,84,-99.99,,,0.00,Acu-Link.com,2013-06-01 02:35:00,
2013-05-31 22:51:00,72.5,67.7,29.91,East,90,2.7,-999.0,85,-99.99,,,0.00,Acu-Link.com,2013-06-01 02:51:00,
2013-05-31 23:06:00,72.5,67.7,29.90,ESE,112,1.7,-999.0,85,-99.99,,,0.00,Acu-Link.com,2013-06-01 03:06:00,
2013-05-31 23:21:00,72.5,67.7,29.90,ESE,112,3.2,-999.0,85,-99.99,,,0.00,Acu-Link.com,2013-06-01 03:21:00,
2013-05-31 23:37:00,72.5,67.7,29.90,ESE,112,1.7,-999.0,85,-99.99,,,0.00,Acu-Link.com,2013-06-01 03:37:00,
2013-05-31 23:52:00,72.5,67.4,29.89,SE,135,1.7,-999.0,84,-99.99,,,0.00,Acu-Link.com,2013-06-01 03:52:00,